Tiempo atmosférico en la estación meteorológica de Villadepera, Zamora (790 m.)



Fecha
DESCASC
Temp. máxima en grados centígrados (hora)
DESCASC
Temp. mínima en grados centígrados (hora)
DESCASC
Temp. media en grados centígrados
DESCASC
Racha de viento máxima en m/sg (hora)
DESCASC
Velocidad máxima media en intervalos de 10 minutos(hora)
DESCASC
Precipitaciones diarias en mm
DESCASC
Precipitaciones de 00:00 a 06:00 en mm
DESCASC
Precipitaciones de 06:00 a 12:00 en mm
DESCASC
Precipitaciones de 12:00 a 18:00 en mm
DESCASC
Precipitaciones de 18:00 a 24:00 en mm
DESCASC
15-08-2019 32.8 (18:50) 15.5 (07:20) 24.1 9.17 (18:00) 5.83 (10:10) 0 0 0 0 0
14-08-2019 32.1 (18:50) 13.6 (00:00) 22.8 12.22 (19:50) 6.39 (20:40) 0 0 0 0 0
13-08-2019 28.6 (18:50) 9.9 (00:00) 19.3 12.78 (02:10) 8.06 (02:10) 0 0 0 0 0
12-08-2019 23.2 (18:50) 8.6 (00:00) 15.9 9.44 (16:50) 6.11 (23:59) 0 0 0 0 0
11-08-2019 22.8 (16:10) 11.9 (00:00) 17.3 13.33 (18:00) 8.89 (15:50) 0.2 0.2 0 0 0
10-08-2019 25.3 (18:10) 13.5 (00:00) 19.4 9.17 (17:50) 6.11 (17:50) 0 0 0 0 0
09-08-2019 24.5 (16:40) 15 (00:00) 19.8 15.28 (08:40) 11.39 (08:40) 1.2 0 1.2 0 0
08-08-2019 28.8 (19:00) 16.2 (00:00) 22.5 15 (18:10) 11.39 (18:30) 0.4 0 0.4 0 0
07-08-2019 24.5 (14:00) 16.3 (00:00) 20.4 10 (16:40) 7.78 (16:40) 0 0 0 0 0
06-08-2019 29.6 (16:40) 15.7 (00:00) 22.7 10.28 (18:00) 7.5 (17:20) 0 0 0 0 0
05-08-2019 32.3 (19:00) 15.5 (00:00) 23.9 10 (19:00) 6.39 (21:00) 0 0 0 0 0
04-08-2019 32.1 (19:00) 15.6 (00:00) 23.8 11.67 (15:40) 7.22 (18:20) 0 0 0 0 0
03-08-2019 33.2 (19:00) 17.8 (00:00) 25.5 11.39 (17:50) 6.67 (17:50) 0 0 0 0 0
02-08-2019 34.2 (19:10) 13.7 (00:00) 24 9.72 (18:10) 5.83 (02:00) 0 0 0 0 0
01-08-2019 31.3 (19:10) 14.1 (00:00) 22.7 12.5 (18:00) 6.67 (18:40) 0 0 0 0 0
31-07-2019 25.8 (17:30) 11.1 (00:00) 18.4 11.67 (02:00) 7.5 (04:00) 0 0 0 0 0
30-07-2019 26.9 (19:10) 8.9 (00:00) 17.9 11.94 (16:20) 6.11 (01:00) 0 0 0 0 0
29-07-2019 24.3 (19:10) 11.8 (00:00) 18 18.33 (14:30) 9.17 (14:00) 0 0 0 0 0
28-07-2019 29.1 (19:10) 10.5 (00:00) 19.8 10.28 (16:40) 6.11 (18:40) 0 0 0 0 0
27-07-2019 24.4 (19:10) 11.3 (00:00) 17.8 11.67 (13:40) 8.61 (17:40) 0 0 0 0 0
26-07-2019 25.4 (19:10) 10.6 (00:00) 18 12.78 (16:40) 9.44 (18:10) 0 0 0 0 0
25-07-2019 30.6 (18:30) 16.1 (00:00) 23.4 14.72 (14:00) 10 (14:00) 0 0 0 0 0
24-07-2019 34.7 (19:10) 18.1 (00:00) 26.4 12.78 (14:10) 8.61 (14:10) 0 0 0 0 0
23-07-2019 34.2 (16:20) 19.8 (00:00) 27 12.5 (00:10) 7.78 (00:10) 0 0 0 0 0
22-07-2019 36.5 (18:20) 18.9 (00:00) 27.7 15.28 (18:40) 7.78 (19:10) 1 0 0 0 1
21-07-2019 35.1 (19:10) 15.8 (00:00) 25.4 8.06 (17:40) 6.11 (08:50) 0 0 0 0 0
20-07-2019 32.7 (19:10) 15.3 (07:10) 24 11.11 (17:50) 7.22 (18:10) 0 0 0 0 0
19-07-2019 34.2 (19:20) 16.1 (00:00) 25.2 11.11 (16:00) 7.22 (19:50) 0 0 0 0 0

Gráficas

Temp. máximas Temp. mínimas Temp. medias Precipitaciones Rachas de viento máximas Velocidades máximas media en intervalos de 10 minutos

Datos horarios

Fecha y hora oficial Temperatura (ºC) Velocidad del viento (km/h) Dirección del viento Racha (km/h) Dirección de racha Precipitación (mm) Presión (hPa) Tendencia (hPa) Humedad (%)
2019-08-17 23:00:00 24 19 Oeste 25 Oeste 0 -- -- 42
2019-08-17 22:00:00 26 17 Noroeste 30 Oeste 0 -- -- 37
2019-08-17 21:00:00 29 17 Oeste 34 Sudoeste 0 -- -- 28
2019-08-17 20:00:00 31 23 Oeste 35 Sudoeste 0 -- -- 25
2019-08-17 19:00:00 32.8 23 Oeste 39 Oeste 0 -- -- 23
2019-08-17 18:00:00 32.2 22 Oeste 36 Sudoeste 0 -- -- 24
2019-08-17 17:00:00 32 27 Sudoeste 42 Sudoeste 0 -- -- 23
2019-08-17 16:00:00 31.5 20 Sudoeste 38 Oeste 0 -- -- 28
2019-08-17 15:00:00 30.7 20 Oeste 31 Sudoeste 0 -- -- 28
2019-08-17 14:00:00 29.5 14 Oeste 27 Oeste 0 -- -- 33
2019-08-17 13:00:00 27.8 14 Oeste 23 Oeste 0 -- -- 39
2019-08-17 12:00:00 24.9 10 Oeste 21 Oeste 0 -- -- 45
2019-08-17 11:00:00 21.9 12 Oeste 21 Oeste 0 -- -- 53
2019-08-17 10:00:00 19 14 Oeste 22 Oeste 0 -- -- 65
2019-08-17 09:00:00 16.3 12 Oeste 16 Sudoeste 0 -- -- 79
2019-08-17 08:00:00 14 7 Sudoeste 13 Oeste 0 -- -- 83
2019-08-17 07:00:00 14.9 14 Oeste 20 Oeste 0 -- -- 78
2019-08-17 06:00:00 14.8 10 Sudoeste 14 Sudoeste 0 -- -- 77
2019-08-17 05:00:00 15.5 12 Sudoeste 16 Sudoeste 0 -- -- 75
2019-08-17 04:00:00 16.4 13 Sudoeste 17 Sudoeste 0 -- -- 72
2019-08-17 03:00:00 17.9 12 Sudoeste 15 Sudoeste 0 -- -- 65
2019-08-17 02:00:00 19.4 8 Oeste 15 Oeste 0 -- -- 58
2019-08-17 01:00:00 20.5 12 Oeste 24 Oeste 0 -- -- 55
2019-08-17 00:00:00 22 14 Oeste 23 Oeste 0 -- -- 48
2019-08-16 23:00:00 23.5 15 Oeste 25 Oeste 0 -- -- 42
2019-08-16 22:00:00 25.5 16 Oeste 21 Oeste 0 -- -- 37
2019-08-16 21:00:00 28.4 15 Oeste 34 Oeste 0 -- -- 31
2019-08-16 20:00:00 31 22 Oeste 38 Sudoeste 0 -- -- 23
2019-08-16 19:00:00 33 24 Oeste 35 Oeste 0 -- -- 23
2019-08-16 18:00:00 32.3 27 Oeste 37 Oeste 0 -- -- 22
2019-08-16 17:00:00 31.9 19 Oeste 36 Sudoeste 0 -- -- 23
2019-08-16 16:00:00 31.4 20 Oeste 37 Oeste 0 -- -- 21
2019-08-16 15:00:00 30.1 16 Oeste 32 Sudoeste 0 -- -- 29
2019-08-16 14:00:00 28.7 12 Oeste 28 Oeste 0 -- -- 33
2019-08-16 13:00:00 27.1 10 Oeste 19 Sudoeste 0 -- -- 39
2019-08-16 12:00:00 25.6 6 Sur 17 Este 0 -- -- 43
2019-08-16 11:00:00 23.4 7 Norte 15 Este 0 -- -- 47
2019-08-16 10:00:00 21 11 Nordeste 18 Este 0 -- -- 54
2019-08-16 09:00:00 18.4 6 Nordeste 11 Nordeste 0 -- -- 64
2019-08-16 08:00:00 15.9 9 Nordeste 14 Nordeste 0 -- -- 73
2019-08-16 07:00:00 15.9 12 Nordeste 16 Nordeste 0 -- -- 72
2019-08-16 06:00:00 16.5 11 Nordeste 18 Nordeste 0 -- -- 70
2019-08-16 05:00:00 17.4 12 Nordeste 20 Nordeste 0 -- -- 67
2019-08-16 04:00:00 18.2 15 Nordeste 28 Nordeste 0 -- -- 65
2019-08-16 03:00:00 19.4 19 Nordeste 27 Nordeste 0 -- -- 63
2019-08-16 02:00:00 20.8 15 Nordeste 23 Nordeste 0 -- -- 59
2019-08-16 01:00:00 21.9 13 Norte 21 Nordeste 0 -- -- 56
2019-08-16 00:00:00 22.4 11 Norte 19 Noroeste 0 -- -- 56
2019-08-15 23:00:00 23.9 14 Noroeste 24 Oeste 0 -- -- 52
2019-08-15 22:00:00 25.5 16 Oeste 23 Oeste 0 -- -- 48
2019-08-15 21:00:00 28.6 14 Oeste 26 Oeste 0 -- -- 36
2019-08-15 20:00:00 30.3 19 Oeste 29 Oeste 0 -- -- 33
2019-08-15 19:00:00 32.6 13 Oeste 32 Oeste 0 -- -- 29
2019-08-15 18:00:00 31.3 17 Oeste 33 Oeste 0 -- -- 31
2019-08-15 17:00:00 31.1 18 Oeste 30 Oeste 0 -- -- 31
2019-08-15 16:00:00 30.3 15 Sudoeste 30 Sudoeste 0 -- -- 31
2019-08-15 15:00:00 29.4 8 Sudoeste 26 Nordeste 0 -- -- 32
2019-08-15 14:00:00 27.7 6 Norte 28 Este 0 -- -- 35
2019-08-15 13:00:00 26.5 12 Nordeste 25 Este 0 -- -- 39
2019-08-15 12:00:00 25 14 Nordeste 28 Nordeste 0 -- -- 43
2019-08-15 11:00:00 22 18 Nordeste 28 Este 0 -- -- 55
2019-08-15 10:00:00 20.2 16 Nordeste 27 Este 0 -- -- 69
2019-08-15 09:00:00 17.7 17 Este 25 Este 0 -- -- 78
2019-08-15 08:00:00 15.8 14 Este 22 Este 0 -- -- 83
2019-08-15 07:00:00 16 12 Este 21 Nordeste 0 -- -- 78
2019-08-15 06:00:00 16.7 7 Nordeste 10 Nordeste 0 -- -- 77
2019-08-15 05:00:00 17.2 7 Este 12 Este 0 -- -- 76
2019-08-15 04:00:00 17.9 4 Sudeste 9 Oeste 0 -- -- 75
2019-08-15 03:00:00 18.1 9 Oeste 13 Oeste 0 -- -- 72
2019-08-15 02:00:00 19.1 14 Oeste 18 Oeste 0 -- -- 66
2019-08-15 01:00:00 20 9 Oeste 24 Oeste 0 -- -- 65
2019-08-15 00:00:00 21.6 15 Oeste 26 Oeste 0 -- -- 60
2019-08-14 23:00:00 22.8 18 Oeste 27 Oeste 0 -- -- 59
2019-08-14 22:00:00 24.6 17 Oeste 31 Oeste 0 -- -- 54
2019-08-14 21:00:00 27.3 21 Oeste 34 Oeste 0 -- -- 47
2019-08-14 20:00:00 29.5 19 Oeste 44 Oeste 0 -- -- 40
2019-08-14 19:00:00 31.9 19 Oeste 35 Oeste 0 -- -- 34
2019-08-14 18:00:00 30.8 19 Oeste 36 Oeste 0 -- -- 35
2019-08-14 17:00:00 30.1 19 Sudoeste 32 Oeste 0 -- -- 34
2019-08-14 16:00:00 29.3 15 Oeste 32 Oeste 0 -- -- 35
2019-08-14 15:00:00 28.5 18 Sudoeste 29 Sudoeste 0 -- -- 35
2019-08-14 14:00:00 27.5 14 Oeste 27 Oeste 0 -- -- 34
2019-08-14 13:00:00 25.6 10 Oeste 22 Oeste 0 -- -- 35
2019-08-14 12:00:00 24.2 4 Sur 14 Sur 0 -- -- 36
2019-08-14 11:00:00 21.5 3 Sur 10 Sur 0 -- -- 42
2019-08-14 10:00:00 19.3 4 Nordeste 9 Este 0 -- -- 47
2019-08-14 09:00:00 16.2 4 Sudeste 6 Sudeste 0 -- -- 51
2019-08-14 08:00:00 14.5 3 Este 12 Norte 0 -- -- 55
2019-08-14 07:00:00 14.8 9 Nordeste 11 Norte 0 -- -- 55
2019-08-14 06:00:00 14.1 7 Norte 10 Norte 0 -- -- 53
2019-08-14 05:00:00 16.6 0 Calma 7 Este 0 -- -- 44
2019-08-14 04:00:00 17 4 Este 7 Nordeste 0 -- -- 43
2019-08-14 03:00:00 17.7 4 Oeste 7 Oeste 0 -- -- 40
2019-08-14 02:00:00 17.4 4 Este 10 Este 0 -- -- 41
2019-08-14 01:00:00 18 5 Este 14 Noroeste 0 -- -- 40
2019-08-14 00:00:00 19.8 13 Noroeste 17 Noroeste 0 -- -- 37
2019-08-13 23:00:00 20.2 14 Noroeste 19 Oeste 0 -- -- 34
2019-08-13 22:00:00 21.5 15 Oeste 19 Oeste 0 -- -- 33
2019-08-13 21:00:00 24.5 11 Oeste 20 Oeste 0 -- -- 28
2019-08-13 20:00:00 26.2 10 Oeste 24 Oeste 0 -- -- 25
2019-08-13 19:00:00 28.2 12 Sudoeste 32 Oeste 0 -- -- 22
2019-08-13 18:00:00 26.6 10 Sudoeste 22 Oeste 0 -- -- 25
2019-08-13 17:00:00 25.6 8 Oeste 20 Oeste 0 -- -- 28
2019-08-13 16:00:00 24.8 9 Sudoeste 21 Noroeste 0 -- -- 28
2019-08-13 15:00:00 23.7 7 Norte 19 Nordeste 0 -- -- 29
2019-08-13 14:00:00 22.3 10 Nordeste 22 Nordeste 0 -- -- 35
2019-08-13 13:00:00 21 13 Nordeste 27 Este 0 -- -- 42
2019-08-13 12:00:00 18.8 18 Este 28 Este 0 -- -- 46
2019-08-13 11:00:00 17.5 18 Este 29 Nordeste 0 -- -- 52
2019-08-13 10:00:00 14.8 19 Nordeste 28 Nordeste 0 -- -- 60
2019-08-13 09:00:00 12.5 18 Nordeste 31 Nordeste 0 -- -- 71
2019-08-13 08:00:00 10.3 20 Nordeste 29 Nordeste 0 -- -- 78
2019-08-13 07:00:00 9.9 17 Nordeste 22 Nordeste 0 -- -- 80
2019-08-13 06:00:00 10.8 16 Nordeste 25 Nordeste 0 -- -- 77
2019-08-13 05:00:00 11.5 18 Nordeste 31 Nordeste 0 -- -- 73
2019-08-13 04:00:00 12.2 20 Nordeste 33 Este 0 -- -- 69
2019-08-13 03:00:00 12.7 15 Nordeste 46 Nordeste 0 -- -- 67
2019-08-13 02:00:00 13.5 25 Nordeste 41 Nordeste 0 -- -- 64
2019-08-13 01:00:00 14.8 24 Nordeste 38 Nordeste 0 -- -- 60
2019-08-13 00:00:00 16.3 22 Nordeste 31 Nordeste 0 -- -- 51
2019-08-12 23:00:00 17.9 13 Nordeste 18 Nordeste 0 -- -- 37
2019-08-12 22:00:00 18 12 Nordeste 14 Nordeste 0 -- -- 37
2019-08-12 21:00:00 19.7 8 Nordeste 21 Nordeste 0 -- -- 32
2019-08-12 20:00:00 21.2 13 Nordeste 23 Nordeste 0 -- -- 31
2019-08-12 19:00:00 22.4 10 Norte 24 Nordeste 0 -- -- 27
2019-08-12 18:00:00 22.7 12 Nordeste 31 Nordeste 0 -- -- 26
2019-08-12 17:00:00 22.2 14 Nordeste 34 Nordeste 0 -- -- 29
2019-08-12 16:00:00 21.7 16 Este 31 Nordeste 0 -- -- 30
2019-08-12 15:00:00 21.1 15 Este 30 Nordeste 0 -- -- 32
2019-08-12 14:00:00 20.1 15 Nordeste 33 Nordeste 0 -- -- 37
2019-08-12 13:00:00 19.3 14 Nordeste 30 Nordeste 0 -- -- 39
2019-08-12 12:00:00 18 16 Nordeste 30 Nordeste 0 -- -- 43
2019-08-12 11:00:00 16.7 14 Nordeste 26 Nordeste 0 -- -- 48
2019-08-12 10:00:00 13.7 10 Nordeste 17 Nordeste 0 -- -- 61
2019-08-12 09:00:00 11.6 7 Norte 12 Norte 0 -- -- 70
2019-08-12 08:00:00 8.9 4 Norte 10 Norte 0 -- -- 80
2019-08-12 07:00:00 8.6 0 Calma 8 Este 0 -- -- 79
2019-08-12 06:00:00 9.9 4 Noroeste 6 Norte 0 -- -- 75
2019-08-12 05:00:00 10.5 4 Norte 7 Norte 0 -- -- 72
2019-08-12 04:00:00 10.5 5 Norte 6 Norte 0 -- -- 73
2019-08-12 03:00:00 11.2 5 Noroeste 6 Noroeste 0 -- -- 70
2019-08-12 02:00:00 10.9 7 Oeste 10 Oeste 0 -- -- 71
2019-08-12 01:00:00 11.5 6 Oeste 18 Noroeste 0 -- -- 68
2019-08-12 00:00:00 12.7 12 Noroeste 19 Noroeste 0 -- -- 64
2019-08-11 23:00:00 14.1 14 Noroeste 27 Noroeste 0 -- -- 58
2019-08-11 22:00:00 15.7 15 Noroeste 30 Noroeste 0 -- -- 53
2019-08-11 21:00:00 18.5 24 Noroeste 37 Oeste 0 -- -- 47
2019-08-11 20:00:00 20.5 27 Oeste 39 Oeste 0 -- -- 39
2019-08-11 19:00:00 22.7 21 Noroeste 46 Oeste 0 -- -- 32
2019-08-11 18:00:00 22.3 30 Oeste 48 Oeste 0 -- -- 32
2019-08-11 17:00:00 22.4 29 Oeste 46 Oeste 0 -- -- 35
2019-08-11 16:00:00 22.4 27 Oeste 44 Oeste 0 -- -- 34
2019-08-11 15:00:00 21.5 17 Sudoeste 41 Sudoeste 0 -- -- 35
2019-08-11 14:00:00 20.6 26 Oeste 41 Sudoeste 0 -- -- 41
2019-08-11 13:00:00 19.2 23 Oeste 36 Sudoeste 0 -- -- 53
2019-08-11 12:00:00 17.5 18 Oeste 32 Oeste 0 -- -- 61
2019-08-11 11:00:00 15.8 18 Oeste 25 Oeste 0 -- -- 79
2019-08-11 10:00:00 13.6 21 Oeste 28 Oeste 0 -- -- 88
2019-08-11 09:00:00 12.6 13 Sudoeste 17 Sudoeste 0 -- -- 92
2019-08-11 08:00:00 12.1 13 Oeste 19 Oeste 0 -- -- 92
2019-08-11 07:00:00 12.5 8 Sudoeste 10 Sudoeste 0 -- -- 89
2019-08-11 06:00:00 12.7 5 Oeste 12 Oeste 0 -- -- 92
2019-08-11 05:00:00 13.4 8 Sudeste 19 Este 0 -- -- 87
2019-08-11 04:00:00 13.5 6 Norte 26 Este 0 -- -- 90
2019-08-11 03:00:00 14.2 13 Norte 28 Oeste 0.2 -- -- 84
2019-08-11 02:00:00 16.7 15 Oeste 20 Oeste 0 -- -- 61
2019-08-11 01:00:00 17.4 14 Oeste 18 Oeste 0 -- -- 60
2019-08-11 00:00:00 18 13 Oeste 22 Oeste 0 -- -- 57
2019-08-10 23:00:00 18.7 12 Oeste 18 Noroeste 0 -- -- 51
2019-08-10 22:00:00 19.4 12 Noroeste 26 Noroeste 0 -- -- 48
2019-08-10 21:00:00 20.7 18 Noroeste 27 Noroeste 0 -- -- 45
2019-08-10 20:00:00 22.4 17 Oeste 30 Oeste 0 -- -- 37
2019-08-10 19:00:00 24.7 19 Oeste 30 Oeste 0 -- -- 33
2019-08-10 18:00:00 24.4 17 Oeste 33 Oeste 0 -- -- 34
2019-08-10 17:00:00 24.3 14 Oeste 31 Oeste 0 -- -- 36
2019-08-10 16:00:00 23.6 17 Sudoeste 29 Sudoeste 0 -- -- 37
2019-08-10 15:00:00 22.8 14 Sudoeste 27 Oeste 0 -- -- 41
2019-08-10 14:00:00 21.3 15 Sudoeste 31 Sudoeste 0 -- -- 41
2019-08-10 13:00:00 20.5 6 Oeste 23 Sudoeste 0 -- -- 50
2019-08-10 12:00:00 18.5 9 Oeste 21 Oeste 0 -- -- 57
2019-08-10 11:00:00 17.3 6 Oeste 20 Oeste 0 -- -- 62
2019-08-10 10:00:00 15 7 Oeste 15 Oeste 0 -- -- 75
2019-08-10 09:00:00 14.3 11 Oeste 15 Oeste 0 -- -- 84
2019-08-10 08:00:00 13.5 6 Sudoeste 18 Oeste 0 -- -- 88
2019-08-10 07:00:00 13.8 12 Oeste 15 Oeste 0 -- -- 87
2019-08-10 06:00:00 14 7 Oeste 15 Oeste 0 -- -- 85
2019-08-10 05:00:00 14.2 11 Oeste 19 Oeste 0 -- -- 83
2019-08-10 04:00:00 14.4 12 Oeste 16 Oeste 0 -- -- 80
2019-08-10 03:00:00 14.1 11 Oeste 15 Oeste 0 -- -- 80
2019-08-10 02:00:00 14.2 11 Oeste 15 Oeste 0 -- -- 77
2019-08-10 01:00:00 14.2 6 Sudoeste 18 Oeste 0 -- -- 77
2019-08-10 00:00:00 15.1 9 Oeste 23 Oeste 0 -- -- 72
2019-08-09 23:00:00 16.3 17 Oeste 26 Oeste 0 -- -- 67
2019-08-09 22:00:00 17.5 16 Oeste 30 Noroeste 0 -- -- 63
2019-08-09 21:00:00 20.2 21 Oeste 42 Oeste 0 -- -- 54
2019-08-09 20:00:00 22.3 27 Oeste 41 Oeste 0 -- -- 43
2019-08-09 19:00:00 22.5 26 Oeste 47 Oeste 0 -- -- 43
2019-08-09 18:00:00 24 30 Sudoeste 45 Oeste 0 -- -- 44
2019-08-09 17:00:00 24.2 30 Oeste 53 Oeste 0 -- -- 42
2019-08-09 16:00:00 23.8 33 Oeste 46 Oeste 0 -- -- 44
2019-08-09 15:00:00 22.9 31 Sudoeste 51 Sudoeste 0 -- -- 48
2019-08-09 14:00:00 21.5 34 Sudoeste 50 Sudoeste 0 -- -- 50
2019-08-09 13:00:00 19.9 34 Sudoeste 46 Oeste 0 -- -- 64
2019-08-09 12:00:00 17.7 36 Oeste 50 Oeste 0 -- -- 74
2019-08-09 11:00:00 16.5 39 Oeste 52 Oeste 0 -- -- 85
2019-08-09 10:00:00 15.9 31 Oeste 48 Oeste 0 -- -- 96
2019-08-09 09:00:00 15 35 Sudoeste 55 Sudoeste 0 -- -- 97
2019-08-09 08:00:00 16.2 30 Oeste 39 Oeste 1 -- -- 97
2019-08-09 07:00:00 18.6 24 Sudoeste 40 Sudoeste 0.2 -- -- 92
2019-08-09 06:00:00 19.8 28 Sudoeste 46 Sudoeste 0 -- -- 81
2019-08-09 05:00:00 20.4 32 Sudoeste 46 Sudoeste 0 -- -- 78
2019-08-09 04:00:00 20.4 25 Sudoeste 42 Sudoeste 0 -- -- 75
2019-08-09 03:00:00 21 19 Sudoeste 33 Sudoeste 0 -- -- 71
2019-08-09 02:00:00 21.7 24 Sudoeste 38 Sudoeste 0 -- -- 69
2019-08-09 01:00:00 21.9 23 Sudoeste 33 Sudoeste 0 -- -- 67
2019-08-09 00:00:00 22.3 11 Sudoeste 31 Sudoeste 0 -- -- 64
2019-08-08 23:00:00 22.8 26 Sudoeste 37 Sudoeste 0 -- -- 61
2019-08-08 22:00:00 23.2 22 Sudoeste 39 Sudoeste 0 -- -- 59
2019-08-08 21:00:00 24.5 27 Sudoeste 45 Oeste 0 -- -- 56
2019-08-08 20:00:00 27.2 33 Sudoeste 53 Sudoeste 0 -- -- 51
2019-08-08 19:00:00 28.8 36 Sudoeste 54 Sudoeste 0 -- -- 47
2019-08-08 18:00:00 27.3 39 Sudoeste 48 Sudoeste 0 -- -- 51
2019-08-08 17:00:00 27.1 27 Sudoeste 48 Sudoeste 0 -- -- 51
2019-08-08 16:00:00 27.5 30 Sudoeste 49 Sudoeste 0 -- -- 52
2019-08-08 15:00:00 25.9 30 Sudoeste 40 Sudoeste 0 -- -- 56
2019-08-08 14:00:00 24 26 Sudoeste 32 Sudoeste 0 -- -- 66
2019-08-08 13:00:00 23.4 19 Oeste 32 Sudoeste 0 -- -- 72
2019-08-08 12:00:00 21.8 22 Sudoeste 34 Sudoeste 0 -- -- 79
2019-08-08 11:00:00 20.3 30 Sudoeste 42 Sudoeste 0 -- -- 87
2019-08-08 10:00:00 19 27 Sudoeste 35 Sudoeste 0 -- -- 93
2019-08-08 09:00:00 17.2 18 Sudoeste 24 Sudoeste 0 -- -- 96
2019-08-08 08:00:00 16.6 12 Sudoeste 18 Sudoeste 0.4 -- -- 96
2019-08-08 07:00:00 16.2 8 Oeste 24 Sudoeste 0 -- -- 95
2019-08-08 06:00:00 17.2 19 Sudoeste 34 Sudoeste 0 -- -- 88
2019-08-08 05:00:00 18.3 11 Sudoeste 15 Sudoeste 0 -- -- 77
2019-08-08 04:00:00 18.6 10 Sudoeste 20 Sudoeste 0 -- -- 78
2019-08-08 03:00:00 18.5 10 Sudoeste 18 Sudoeste 0 -- -- 84
2019-08-08 02:00:00 18.7 9 Sudoeste 13 Sudoeste 0 -- -- 84
2019-08-08 01:00:00 18.7 0 Calma 7 Sudeste 0 -- -- 83
2019-08-08 00:00:00 18.7 3 Sur 8 Noroeste 0 -- -- 83
2019-08-07 23:00:00 18.6 5 Oeste 8 Oeste 0 -- -- 84
2019-08-07 22:00:00 18.8 5 Noroeste 12 Noroeste 0 -- -- 82
2019-08-07 21:00:00 19.3 10 Noroeste 17 Oeste 0 -- -- 80
2019-08-07 20:00:00 20.6 9 Oeste 20 Oeste 0 -- -- 73
2019-08-07 19:00:00 20.3 12 Noroeste 27 Noroeste 0 -- -- 81
2019-08-07 18:00:00 20.4 21 Oeste 33 Oeste 0 -- -- 69
2019-08-07 17:00:00 20.9 23 Oeste 36 Oeste 0 -- -- 66
2019-08-07 16:00:00 22.9 22 Oeste 33 Sudoeste 0 -- -- 57
2019-08-07 15:00:00 24.1 18 Oeste 30 Oeste 0 -- -- 56
2019-08-07 14:00:00 24.5 14 Sudoeste 30 Sudoeste 0 -- -- 51
2019-08-07 13:00:00 22.2 14 Oeste 26 Sudoeste 0 -- -- 64
2019-08-07 12:00:00 21.5 13 Sudoeste 19 Sudoeste 0 -- -- 63
2019-08-07 11:00:00 20.1 15 Oeste 21 Oeste 0 -- -- 69
2019-08-07 10:00:00 18.9 10 Sudoeste 16 Sudoeste 0 -- -- 73
2019-08-07 09:00:00 17.7 9 Oeste 13 Oeste 0 -- -- 77
2019-08-07 08:00:00 16.5 10 Oeste 14 Oeste 0 -- -- 81
2019-08-07 07:00:00 16.6 10 Oeste 13 Oeste 0 -- -- 80
2019-08-07 06:00:00 16.7 6 Oeste 15 Oeste 0 -- -- 80
2019-08-07 05:00:00 17.3 9 Sudoeste 14 Oeste 0 -- -- 78
2019-08-07 04:00:00 18.8 15 Oeste 22 Oeste 0 -- -- 73
2019-08-07 03:00:00 19.3 9 Sudoeste 15 Sudoeste 0 -- -- 70
2019-08-07 02:00:00 19.8 10 Sudoeste 14 Sudoeste 0 -- -- 69
2019-08-07 01:00:00 20.4 13 Oeste 21 Oeste 0 -- -- 66
2019-08-07 00:00:00 21.3 14 Sudoeste 20 Sudoeste 0 -- -- 63
2019-08-06 23:00:00 21.8 10 Oeste 21 Oeste 0 -- -- 59
2019-08-06 22:00:00 22.5 12 Oeste 19 Oeste 0 -- -- 57
2019-08-06 21:00:00 23.3 12 Noroeste 32 Noroeste 0 -- -- 53
2019-08-06 20:00:00 24.9 19 Noroeste 33 Oeste 0 -- -- 49
2019-08-06 19:00:00 26.7 24 Oeste 36 Oeste 0 -- -- 40
2019-08-06 18:00:00 29 21 Oeste 37 Oeste 0 -- -- 38
2019-08-06 17:00:00 28.9 23 Oeste 34 Oeste 0 -- -- 33
2019-08-06 16:00:00 29.4 19 Oeste 33 Oeste 0 -- -- 33
2019-08-06 15:00:00 28.8 15 Oeste 27 Oeste 0 -- -- 35
2019-08-06 14:00:00 26.8 14 Sudoeste 26 Sudoeste 0 -- -- 42
2019-08-06 13:00:00 26.2 10 Oeste 20 Oeste 0 -- -- 47
2019-08-06 12:00:00 23.8 12 Oeste 20 Oeste 0 -- -- 58
2019-08-06 11:00:00 21.1 8 Oeste 15 Oeste 0 -- -- 68
2019-08-06 10:00:00 18.9 9 Oeste 13 Oeste 0 -- -- 77
2019-08-06 09:00:00 17.1 6 Oeste 9 Oeste 0 -- -- 83
2019-08-06 08:00:00 16.1 3 Oeste 12 Oeste 0 -- -- 86
2019-08-06 07:00:00 16.4 12 Oeste 17 Oeste 0 -- -- 84
2019-08-06 06:00:00 16.6 8 Oeste 19 Oeste 0 -- -- 83
2019-08-06 05:00:00 17.2 17 Oeste 19 Oeste 0 -- -- 80
2019-08-06 04:00:00 17.9 14 Oeste 15 Oeste 0 -- -- 77
2019-08-06 03:00:00 18.9 11 Sudoeste 15 Sudoeste 0 -- -- 72
2019-08-06 02:00:00 19.7 13 Oeste 18 Oeste 0 -- -- 68
2019-08-06 01:00:00 21.3 13 Oeste 20 Oeste 0 -- -- 59
2019-08-06 00:00:00 22.9 16 Oeste 21 Oeste 0 -- -- 53
2019-08-05 23:00:00 24.1 16 Oeste 19 Oeste 0 -- -- 45
2019-08-05 22:00:00 25.6 14 Oeste 29 Oeste 0 -- -- 39
2019-08-05 21:00:00 28.4 23 Oeste 31 Oeste 0 -- -- 32
2019-08-05 20:00:00 30 20 Oeste 33 Oeste 0 -- -- 29
2019-08-05 19:00:00 32.3 22 Oeste 36 Oeste 0 -- -- 27
2019-08-05 18:00:00 31.2 15 Oeste 33 Oeste 0 -- -- 29
2019-08-05 17:00:00 31.2 18 Oeste 32 Oeste 0 -- -- 29
2019-08-05 16:00:00 30.6 11 Oeste 35 Sudoeste 0 -- -- 31
2019-08-05 15:00:00 29.6 13 Oeste 26 Oeste 0 -- -- 33
2019-08-05 14:00:00 28.3 9 Sudoeste 20 Sudoeste 0 -- -- 38
2019-08-05 13:00:00 27.3 8 Sudoeste 18 Oeste 0 -- -- 44
2019-08-05 12:00:00 25.3 5 Nordeste 15 Nordeste 0 -- -- 50
2019-08-05 11:00:00 22.6 6 Nordeste 13 Nordeste 0 -- -- 62
2019-08-05 10:00:00 20.4 5 Nordeste 12 Este 0 -- -- 70
2019-08-05 09:00:00 18 9 Nordeste 13 Nordeste 0 -- -- 78
2019-08-05 08:00:00 16.1 9 Nordeste 10 Nordeste 0 -- -- 85
2019-08-05 07:00:00 15.9 9 Nordeste 11 Nordeste 0 -- -- 84
2019-08-05 06:00:00 16.2 5 Nordeste 10 Oeste 0 -- -- 81
2019-08-05 05:00:00 17.6 9 Oeste 12 Oeste 0 -- -- 80
2019-08-05 04:00:00 18.1 6 Sudoeste 11 Sudoeste 0 -- -- 76
2019-08-05 03:00:00 18.7 4 Nordeste 16 Oeste 0 -- -- 72
2019-08-05 02:00:00 19.2 13 Oeste 17 Oeste 0 -- -- 69
2019-08-05 01:00:00 20.5 13 Oeste 19 Oeste 0 -- -- 59
2019-08-05 00:00:00 22.1 15 Oeste 19 Oeste 0 -- -- 55
2019-08-04 23:00:00 23.4 13 Oeste 20 Oeste 0 -- -- 48
2019-08-04 22:00:00 25.5 15 Noroeste 24 Noroeste 0 -- -- 44
2019-08-04 21:00:00 28.4 18 Oeste 31 Oeste 0 -- -- 37
2019-08-04 20:00:00 30 22 Oeste 40 Oeste 0 -- -- 27
2019-08-04 19:00:00 32.1 23 Sudoeste 36 Oeste 0 -- -- 27
2019-08-04 18:00:00 31.1 25 Oeste 40 Oeste 0 -- -- 27
2019-08-04 17:00:00 31 26 Sudoeste 39 Oeste 0 -- -- 26
2019-08-04 16:00:00 30.4 19 Oeste 42 Sudoeste 0 -- -- 33
2019-08-04 15:00:00 29.8 19 Sudoeste 33 Sudoeste 0 -- -- 36
2019-08-04 14:00:00 28.6 17 Sudoeste 30 Sudoeste 0 -- -- 39
2019-08-04 13:00:00 27.5 16 Sudoeste 30 Oeste 0 -- -- 43
2019-08-04 12:00:00 25.4 9 Oeste 17 Oeste 0 -- -- 52
2019-08-04 11:00:00 22.6 9 Oeste 15 Sudoeste 0 -- -- 61
2019-08-04 10:00:00 19.8 10 Oeste 20 Oeste 0 -- -- 72
2019-08-04 09:00:00 18.2 7 Oeste 9 Oeste 0 -- -- 78
2019-08-04 08:00:00 16.1 5 Oeste 13 Oeste 0 -- -- 83
2019-08-04 07:00:00 16.2 8 Oeste 13 Oeste 0 -- -- 80
2019-08-04 06:00:00 17 9 Oeste 19 Oeste 0 -- -- 79
2019-08-04 05:00:00 17.5 14 Oeste 17 Oeste 0 -- -- 77
2019-08-04 04:00:00 18.5 14 Oeste 15 Oeste 0 -- -- 73
2019-08-04 03:00:00 19 4 Noroeste 18 Oeste 0 -- -- 70
2019-08-04 02:00:00 19.3 17 Oeste 20 Sudoeste 0 -- -- 65
2019-08-04 01:00:00 21.1 15 Oeste 17 Oeste 0 -- -- 55
2019-08-04 00:00:00 23 13 Oeste 21 Oeste 0 -- -- 48
2019-08-03 23:00:00 24.8 17 Noroeste 27 Oeste 0 -- -- 43
2019-08-03 22:00:00 26.7 20 Oeste 30 Oeste 0 -- -- 37
2019-08-03 21:00:00 29.6 17 Oeste 37 Oeste 0 -- -- 32
2019-08-03 20:00:00 31.3 19 Oeste 39 Oeste 0 -- -- 28
2019-08-03 19:00:00 33.2 23 Oeste 34 Oeste 0 -- -- 26
2019-08-03 18:00:00 32.5 20 Oeste 41 Oeste 0 -- -- 25
2019-08-03 17:00:00 32.4 21 Sudoeste 32 Oeste 0 -- -- 26
2019-08-03 16:00:00 32.6 14 Oeste 35 Oeste 0 -- -- 27
2019-08-03 15:00:00 31.2 9 Noroeste 26 Oeste 0 -- -- 30
2019-08-03 14:00:00 31 11 Sudoeste 20 Sur 0 -- -- 31
2019-08-03 13:00:00 29.7 7 Sudeste 15 Sudoeste 0 -- -- 35
2019-08-03 12:00:00 27.4 4 Este 18 Este 0 -- -- 39
2019-08-03 11:00:00 25 6 Norte 18 Este 0 -- -- 44
2019-08-03 10:00:00 22.9 12 Este 19 Este 0 -- -- 49
2019-08-03 09:00:00 20.7 14 Nordeste 23 Nordeste 0 -- -- 54
2019-08-03 08:00:00 18.5 12 Nordeste 19 Norte 0 -- -- 62
2019-08-03 07:00:00 17.9 13 Nordeste 22 Nordeste 0 -- -- 65
2019-08-03 06:00:00 18.2 13 Nordeste 20 Nordeste 0 -- -- 66
2019-08-03 05:00:00 19.1 14 Nordeste 24 Nordeste 0 -- -- 64
2019-08-03 04:00:00 20 16 Nordeste 22 Nordeste 0 -- -- 59
2019-08-03 03:00:00 20.8 12 Norte 23 Norte 0 -- -- 52
2019-08-03 02:00:00 21.7 15 Norte 25 Norte 0 -- -- 52
2019-08-03 01:00:00 22.3 12 Norte 15 Noroeste 0 -- -- 51
2019-08-03 00:00:00 23.4 12 Norte 20 Noroeste 0 -- -- 46
2019-08-02 23:00:00 25.2 15 Noroeste 19 Oeste 0 -- -- 35
2019-08-02 22:00:00 26.7 12 Oeste 16 Oeste 0 -- -- 29
2019-08-02 21:00:00 30.2 10 Oeste 14 Noroeste 0 -- -- 27
2019-08-02 20:00:00 31.4 10 Sudoeste 18 Sudoeste 0 -- -- 24
2019-08-02 19:00:00 33.5 13 Oeste 35 Sudoeste 0 -- -- 22
2019-08-02 18:00:00 31.8 9 Oeste 19 Sur 0 -- -- 24
2019-08-02 17:00:00 31.3 9 Norte 20 Oeste 0 -- -- 25
2019-08-02 16:00:00 30.5 9 Sur 34 Sudoeste 0 -- -- 27
2019-08-02 15:00:00 29.5 9 Oeste 19 Sudeste 0 -- -- 31
2019-08-02 14:00:00 27.6 7 Este 21 Nordeste 0 -- -- 39
2019-08-02 13:00:00 25.8 11 Nordeste 22 Este 0 -- -- 45
2019-08-02 12:00:00 23.8 11 Nordeste 21 Nordeste 0 -- -- 51
2019-08-02 11:00:00 20.8 13 Nordeste 22 Nordeste 0 -- -- 61
2019-08-02 10:00:00 18.3 19 Nordeste 28 Este 0 -- -- 69
2019-08-02 09:00:00 16.3 21 Nordeste 29 Nordeste 0 -- -- 77
2019-08-02 08:00:00 14.3 11 Nordeste 21 Nordeste 0 -- -- 84
2019-08-02 07:00:00 13.7 13 Nordeste 19 Nordeste 0 -- -- 86
2019-08-02 06:00:00 14.4 13 Nordeste 24 Nordeste 0 -- -- 84
2019-08-02 05:00:00 15 16 Nordeste 28 Nordeste 0 -- -- 82
2019-08-02 04:00:00 15.6 15 Nordeste 25 Nordeste 0 -- -- 80
2019-08-02 03:00:00 16.8 12 Nordeste 29 Nordeste 0 -- -- 76
2019-08-02 02:00:00 18.2 21 Nordeste 30 Nordeste 0 -- -- 72
2019-08-02 01:00:00 20.8 8 Norte 16 Noroeste 0 -- -- 50
2019-08-02 00:00:00 21.5 11 Noroeste 20 Noroeste 0 -- -- 48
2019-08-01 23:00:00 23 15 Noroeste 23 Oeste 0 -- -- 45
2019-08-01 22:00:00 24.6 15 Oeste 20 Oeste 0 -- -- 34
2019-08-01 21:00:00 27.7 9 Noroeste 23 Oeste 0 -- -- 27
2019-08-01 20:00:00 29.1 11 Sudoeste 31 Oeste 0 -- -- 25
2019-08-01 19:00:00 30.8 14 Oeste 33 Oeste 0 -- -- 22
2019-08-01 18:00:00 30 22 Oeste 45 Sudoeste 0 -- -- 23
2019-08-01 17:00:00 30 17 Oeste 39 Oeste 0 -- -- 25
2019-08-01 16:00:00 29.3 16 Oeste 32 Sudoeste 0 -- -- 28
2019-08-01 15:00:00 27.8 13 Oeste 31 Sudoeste 0 -- -- 31
2019-08-01 14:00:00 27.4 10 Oeste 26 Sudoeste 0 -- -- 34
2019-08-01 13:00:00 26 11 Oeste 19 Oeste 0 -- -- 38
2019-08-01 12:00:00 24.1 5 Nordeste 13 Este 0 -- -- 46
2019-08-01 11:00:00 21.4 7 Este 19 Este 0 -- -- 55
2019-08-01 10:00:00 19.2 14 Este 21 Este 0 -- -- 63
2019-08-01 09:00:00 17.1 10 Nordeste 15 Nordeste 0 -- -- 68
2019-08-01 08:00:00 14.9 7 Este 10 Nordeste 0 -- -- 75
2019-08-01 07:00:00 14.3 11 Nordeste 16 Norte 0 -- -- 76
2019-08-01 06:00:00 15.3 13 Norte 21 Norte 0 -- -- 73
2019-08-01 05:00:00 15.9 14 Nordeste 20 Nordeste 0 -- -- 72
2019-08-01 04:00:00 16.6 16 Nordeste 20 Nordeste 0 -- -- 69
2019-08-01 03:00:00 17.5 13 Nordeste 20 Nordeste 0 -- -- 65
2019-08-01 02:00:00 18.6 13 Nordeste 19 Nordeste 0 -- -- 60
2019-08-01 01:00:00 20.2 12 Nordeste 23 Nordeste 0 -- -- 51
2019-08-01 00:00:00 21.4 14 Nordeste 22 Nordeste 0 -- -- 38
2019-07-31 23:00:00 21.8 10 Nordeste 13 Norte 0 -- -- 38
2019-07-31 22:00:00 22.5 9 Norte 17 Norte 0 -- -- 37
2019-07-31 21:00:00 24.3 13 Norte 18 Norte 0 -- -- 34
2019-07-31 20:00:00 24.7 14 Norte 22 Norte 0 -- -- 34
2019-07-31 19:00:00 25.3 12 Norte 22 Nordeste 0 -- -- 32
2019-07-31 18:00:00 25.3 12 Norte 25 Nordeste 0 -- -- 34
2019-07-31 17:00:00 25.2 14 Nordeste 23 Nordeste 0 -- -- 35
2019-07-31 16:00:00 24.9 14 Nordeste 29 Este 0 -- -- 36
2019-07-31 15:00:00 23.8 17 Nordeste 31 Nordeste 0 -- -- 40
2019-07-31 14:00:00 21.8 19 Nordeste 34 Nordeste 0 -- -- 45
2019-07-31 13:00:00 20.6 19 Nordeste 39 Nordeste 0 -- -- 49
2019-07-31 12:00:00 19.9 21 Nordeste 35 Nordeste 0 -- -- 51
2019-07-31 11:00:00 17.2 21 Nordeste 34 Nordeste 0 -- -- 60
2019-07-31 10:00:00 15.5 21 Nordeste 36 Nordeste 0 -- -- 67
2019-07-31 09:00:00 13.5 20 Nordeste 37 Nordeste 0 -- -- 74
2019-07-31 08:00:00 11.5 24 Nordeste 41 Nordeste 0 -- -- 82
2019-07-31 07:00:00 11.4 23 Nordeste 40 Nordeste 0 -- -- 82
2019-07-31 06:00:00 11.9 23 Nordeste 37 Nordeste 0 -- -- 80
2019-07-31 05:00:00 12.5 24 Nordeste 36 Nordeste 0 -- -- 77
2019-07-31 04:00:00 12.9 27 Nordeste 39 Nordeste 0 -- -- 74
2019-07-31 03:00:00 13.7 21 Nordeste 34 Nordeste 0 -- -- 69
2019-07-31 02:00:00 15.1 26 Nordeste 42 Nordeste 0 -- -- 64
2019-07-31 01:00:00 17 21 Nordeste 32 Nordeste 0 -- -- 51
2019-07-31 00:00:00 18.3 14 Nordeste 18 Nordeste 0 -- -- 33
2019-07-30 23:00:00 19.4 12 Nordeste 19 Nordeste 0 -- -- 32
2019-07-30 22:00:00 20.3 7 Este 17 Este 0 -- -- 29
2019-07-30 21:00:00 23.1 10 Este 20 Este 0 -- -- 26
2019-07-30 20:00:00 24.3 10 Nordeste 19 Nordeste 0 -- -- 26
2019-07-30 19:00:00 26.2 13 Nordeste 27 Nordeste 0 -- -- 24
2019-07-30 18:00:00 25 10 Norte 21 Nordeste 0 -- -- 25
2019-07-30 17:00:00 24.6 15 Este 43 Este 0 -- -- 27
2019-07-30 16:00:00 24.1 14 Nordeste 25 Nordeste 0 -- -- 27
2019-07-30 15:00:00 22.9 11 Nordeste 27 Este 0 -- -- 29
2019-07-30 14:00:00 21.8 10 Nordeste 24 Nordeste 0 -- -- 34
2019-07-30 13:00:00 20.4 13 Nordeste 25 Nordeste 0 -- -- 39
2019-07-30 12:00:00 18.9 15 Nordeste 34 Nordeste 0 -- -- 43
2019-07-30 11:00:00 16.8 14 Norte 30 Nordeste 0 -- -- 49
2019-07-30 10:00:00 14.6 9 Nordeste 18 Este 0 -- -- 58
2019-07-30 09:00:00 11.7 4 Norte 7 Oeste 0 -- -- 72
2019-07-30 08:00:00 9.6 5 Oeste 6 Oeste 0 -- -- 78
2019-07-30 07:00:00 8.9 5 Oeste 8 Sur 0 -- -- 80
2019-07-30 06:00:00 9.3 3 Norte 9 Noroeste 0 -- -- 78
2019-07-30 05:00:00 9.6 9 Noroeste 22 Oeste 0 -- -- 77
2019-07-30 04:00:00 10.9 21 Oeste 28 Oeste 0 -- -- 74
2019-07-30 03:00:00 11.4 15 Oeste 28 Oeste 0 -- -- 73
2019-07-30 02:00:00 11.5 14 Oeste 30 Oeste 0 -- -- 71
2019-07-30 01:00:00 13 22 Oeste 31 Oeste 0 -- -- 66
2019-07-30 00:00:00 14.1 20 Oeste 31 Oeste 0 -- -- 61
2019-07-29 23:00:00 15.5 24 Oeste 31 Oeste 0 -- -- 54
2019-07-29 22:00:00 17.1 18 Noroeste 33 Oeste 0 -- -- 45
2019-07-29 21:00:00 20 21 Oeste 37 Oeste 0 -- -- 41
2019-07-29 20:00:00 22 25 Oeste 40 Oeste 0 -- -- 38
2019-07-29 19:00:00 24.2 26 Oeste 41 Oeste 0 -- -- 32
2019-07-29 18:00:00 24.1 23 Oeste 51 Oeste 0 -- -- 34
2019-07-29 17:00:00 23.8 28 Oeste 55 Noroeste 0 -- -- 33
2019-07-29 16:00:00 23.5 32 Oeste 48 Oeste 0 -- -- 36
2019-07-29 15:00:00 23 30 Oeste 66 Oeste 0 -- -- 38
2019-07-29 14:00:00 21.8 33 Oeste 54 Oeste 0 -- -- 43
2019-07-29 13:00:00 20.9 31 Oeste 46 Oeste 0 -- -- 46
2019-07-29 12:00:00 19.5 28 Oeste 42 Oeste 0 -- -- 51
2019-07-29 11:00:00 17.9 28 Oeste 39 Oeste 0 -- -- 58
2019-07-29 10:00:00 16.5 24 Sudoeste 35 Oeste 0 -- -- 59
2019-07-29 09:00:00 14.8 18 Sudoeste 22 Sudoeste 0 -- -- 56
2019-07-29 08:00:00 13.1 12 Sudoeste 22 Oeste 0 -- -- 64
2019-07-29 07:00:00 12.1 19 Oeste 26 Oeste 0 -- -- 68
2019-07-29 06:00:00 13 18 Oeste 24 Oeste 0 -- -- 66
2019-07-29 05:00:00 13.2 19 Oeste 27 Oeste 0 -- -- 56
2019-07-29 04:00:00 14.6 23 Oeste 39 Oeste 0 -- -- 48
2019-07-29 03:00:00 15.2 20 Oeste 32 Oeste 0 -- -- 48
2019-07-29 02:00:00 16.7 22 Oeste 31 Oeste 0 -- -- 46
2019-07-29 01:00:00 17.9 17 Oeste 27 Oeste 0 -- -- 48
2019-07-29 00:00:00 19.6 18 Oeste 23 Oeste 0 -- -- 44
2019-07-28 23:00:00 20.8 14 Oeste 18 Oeste 0 -- -- 38
2019-07-28 22:00:00 22.7 9 Oeste 21 Oeste 0 -- -- 31
2019-07-28 21:00:00 25.6 16 Oeste 30 Oeste 0 -- -- 26
2019-07-28 20:00:00 26.9 19 Sudoeste 29 Oeste 0 -- -- 28
2019-07-28 19:00:00 28.6 15 Oeste 35 Oeste 0 -- -- 22
2019-07-28 18:00:00 27.4 10 Oeste 36 Oeste 0 -- -- 26
2019-07-28 17:00:00 26.6 14 Oeste 37 Sudoeste 0 -- -- 28
2019-07-28 16:00:00 25.5 11 Noroeste 26 Oeste 0 -- -- 31
2019-07-28 15:00:00 24.4 8 Sudoeste 19 Sur 0 -- -- 34
2019-07-28 14:00:00 22.6 7 Norte 14 Este 0 -- -- 42
2019-07-28 13:00:00 21.3 11 Sudeste 19 Este 0 -- -- 47
2019-07-28 12:00:00 19.5 12 Este 26 Este 0 -- -- 52
2019-07-28 11:00:00 17.9 16 Este 27 Nordeste 0 -- -- 58
2019-07-28 10:00:00 16.1 18 Este 28 Este 0 -- -- 66
2019-07-28 09:00:00 14 13 Nordeste 17 Nordeste 0 -- -- 78
2019-07-28 08:00:00 11.8 11 Nordeste 16 Nordeste 0 -- -- 87
2019-07-28 07:00:00 10.6 9 Nordeste 12 Nordeste 0 -- -- 89
2019-07-28 06:00:00 11 8 Nordeste 12 Este 0 -- -- 87
2019-07-28 05:00:00 12.2 10 Este 21 Este 0 -- -- 82
2019-07-28 04:00:00 13.2 15 Este 22 Este 0 -- -- 79
2019-07-28 03:00:00 13.2 13 Este 23 Nordeste 0 -- -- 80
2019-07-28 02:00:00 14.3 17 Este 26 Este 0 -- -- 79
2019-07-28 01:00:00 15.4 15 Nordeste 29 Este 0 -- -- 74
2019-07-28 00:00:00 17 15 Este 24 Este 0 -- -- 69
2019-07-27 23:00:00 19.2 15 Nordeste 24 Nordeste 0 -- -- 54
2019-07-26 12:00:00 -- -- -- -- -- -- -- -- --
2019-07-26 11:00:00 -- -- -- -- -- -- -- -- --
2019-07-26 10:00:00 -- -- -- -- -- -- -- -- --
2019-07-26 09:00:00 -- -- -- -- -- -- -- -- --
2019-07-26 08:00:00 11 11 Oeste 21 Oeste 0 -- -- 93
2019-07-26 07:00:00 10.9 15 Sudoeste 23 Oeste 0 -- -- 92
2019-07-26 06:00:00 12.1 20 Oeste 29 Oeste 0 -- -- 88
2019-07-26 05:00:00 13.4 15 Oeste 28 Oeste 0 -- -- 83
2019-07-26 04:00:00 14.7 19 Sudoeste 28 Sudoeste 0 -- -- 80
2019-07-26 03:00:00 16.1 17 Sudoeste 30 Oeste 0 -- -- 79
2019-07-26 02:00:00 17.5 15 Oeste 28 Oeste 0 -- -- 78
2019-07-26 01:00:00 18.1 15 Oeste 29 Oeste 0 -- -- 79
2019-07-26 00:00:00 18.8 21 Oeste 39 Oeste 0 -- -- 78
2019-07-25 23:00:00 20.2 20 Oeste 34 Oeste 0 -- -- 72
2019-07-25 22:00:00 21.4 25 Oeste 45 Oeste 0 -- -- 66
2019-07-25 21:00:00 23.2 18 Oeste 36 Oeste 0 -- -- 56
2019-07-25 20:00:00 24.2 24 Oeste 41 Oeste 0 -- -- 51
2019-07-25 19:00:00 27.9 31 Oeste 46 Sudoeste 0 -- -- 38
2019-07-25 18:00:00 29 31 Sudoeste 48 Sudoeste 0 -- -- 35
2019-07-25 17:00:00 30.3 28 Sudoeste 50 Sudoeste 0 -- -- 31
2019-07-25 16:00:00 29.8 28 Oeste 51 Sudoeste 0 -- -- 35
2019-07-25 15:00:00 29.5 30 Sudoeste 48 Sudoeste 0 -- -- 34
2019-07-25 14:00:00 28.5 36 Sudoeste 53 Sudoeste 0 -- -- 35
2019-07-25 13:00:00 27.4 24 Sudoeste 38 Sudoeste 0 -- -- 37
2019-07-25 12:00:00 25.7 21 Sudoeste 28 Sudoeste 0 -- -- 42
2019-07-25 11:00:00 24.5 13 Sudoeste 20 Sudoeste 0 -- -- 46
2019-07-25 10:00:00 21.6 7 Oeste 11 Sudoeste 0 -- -- 53
2019-07-25 09:00:00 19 4 Sudoeste 10 Oeste 0 -- -- 61
2019-07-25 08:00:00 16.6 10 Oeste 12 Oeste 0 -- -- 67
2019-07-25 07:00:00 16.4 10 Oeste 15 Sudoeste 0 -- -- 65
2019-07-25 06:00:00 16.9 10 Sudoeste 13 Sudoeste 0 -- -- 63
2019-07-25 05:00:00 17.9 9 Sudoeste 14 Sudoeste 0 -- -- 60
2019-07-25 04:00:00 18.4 7 Sudoeste 13 Oeste 0 -- -- 57
2019-07-25 03:00:00 19.2 11 Oeste 16 Oeste 0 -- -- 56
2019-07-25 02:00:00 20.5 15 Oeste 18 Oeste 0 -- -- 56
2019-07-25 01:00:00 22 10 Oeste 17 Oeste 0 -- -- 52
2019-07-25 00:00:00 23.9 13 Oeste 25 Oeste 0 -- -- 49
2019-07-24 23:00:00 25.6 19 Oeste 27 Oeste 0 -- -- 46
2019-07-24 22:00:00 27.9 19 Oeste 34 Oeste 0 -- -- 37
2019-07-24 21:00:00 31.2 19 Sudoeste 35 Sudoeste 0 -- -- 27
2019-07-24 20:00:00 32.7 24 Sudoeste 38 Sudoeste 0 -- -- 26
2019-07-24 19:00:00 34 26 Sudoeste 44 Sur 0 -- -- 23
2019-07-24 18:00:00 33.6 28 Sudoeste 42 Sudoeste 0 -- -- 24
2019-07-24 17:00:00 32.6 23 Sudoeste 44 Sudoeste 0 -- -- 30
2019-07-24 16:00:00 33.9 24 Sur 42 Sudoeste 0 -- -- 26
2019-07-24 15:00:00 32.6 22 Sudoeste 46 Sudoeste 0 -- -- 28
2019-07-24 14:00:00 32 23 Sudoeste 39 Sudoeste 0 -- -- 29
2019-07-24 13:00:00 29.5 9 Sudeste 19 Sudeste 0 -- -- 43
2019-07-24 12:00:00 27.2 7 Este 18 Sudeste 0 -- -- 52
2019-07-24 11:00:00 25.5 10 Este 20 Este 0 -- -- 58
2019-07-24 10:00:00 23.3 12 Este 18 Este 0 -- -- 64
2019-07-24 09:00:00 20.7 9 Sudeste 14 Nordeste 0 -- -- 73
2019-07-24 08:00:00 19.2 10 Nordeste 15 Nordeste 0 -- -- 76
2019-07-24 07:00:00 18.1 8 Nordeste 14 Este 0 -- -- 83
2019-07-24 06:00:00 18.7 8 Sudeste 23 Este 0 -- -- 76
2019-07-24 05:00:00 19.8 10 Noroeste 12 Noroeste 0 -- -- 71
2019-07-24 04:00:00 20.8 9 Oeste 11 Oeste 0 -- -- 67
2019-07-24 03:00:00 20.9 5 Sudeste 17 Este 0 -- -- 68
2019-07-24 02:00:00 21.7 6 Nordeste 17 Este 0 -- -- 62
2019-07-24 01:00:00 22 18 Este 30 Este 0 -- -- 65
2019-07-24 00:00:00 23.4 9 Oeste 15 Oeste 0 -- -- 54
2019-07-23 23:00:00 24.4 12 Oeste 23 Oeste 0 -- -- 49
2019-07-23 22:00:00 25.7 13 Noroeste 27 Noroeste 0 -- -- 46
2019-07-23 21:00:00 26.8 11 Noroeste 19 Noroeste 0 -- -- 48
2019-07-23 20:00:00 28 10 Norte 27 Norte 0 -- -- 43
2019-07-23 19:00:00 30.2 12 Sudeste 36 Sudeste 0 -- -- 35
2019-07-23 18:00:00 32.3 21 Sudoeste 33 Sudoeste 0 -- -- 32
2019-07-23 17:00:00 33.9 20 Sudoeste 40 Sudoeste 0 -- -- 32
2019-07-23 16:00:00 33.6 17 Sudoeste 34 Oeste 0 -- -- 31
2019-07-23 15:00:00 33.1 22 Sudoeste 33 Sur 0 -- -- 31
2019-07-23 14:00:00 31.9 8 Sur 32 Sur 0 -- -- 32
2019-07-23 13:00:00 30.5 13 Sudeste 27 Sudeste 0 -- -- 38
2019-07-23 12:00:00 28.8 11 Sur 18 Sur 0 -- -- 42
2019-07-23 11:00:00 24.5 10 Sudeste 19 Sudeste 0 -- -- 59
2019-07-23 10:00:00 23 10 Este 19 Este 0 -- -- 63
2019-07-23 09:00:00 20.6 12 Este 18 Sudeste 0 -- -- 72
2019-07-23 08:00:00 20.2 14 Sudeste 17 Sudeste 0 -- -- 70
2019-07-23 07:00:00 21 8 Sudeste 13 Sudeste 0 -- -- 62
2019-07-23 06:00:00 22 4 Sudeste 26 Sudoeste 0 -- -- 59
2019-07-23 05:00:00 21.1 17 Oeste 45 Sudoeste 0 -- -- 58
2019-07-23 04:00:00 21.8 14 Este 24 Este 0 -- -- 57
2019-07-23 03:00:00 23.4 10 Nordeste 22 Nordeste 0 -- -- 48
2019-07-23 02:00:00 24 13 Nordeste 29 Este 0 -- -- 46
2019-07-23 01:00:00 22.3 11 Este 45 Sudeste 0 -- -- 56
2019-07-23 00:00:00 22.6 17 Nordeste 30 Norte 0 -- -- 54
2019-07-22 23:00:00 22.1 16 Norte 31 Noroeste 0 -- -- 57
2019-07-22 22:00:00 23.2 14 Norte 29 Noroeste 0.6 -- -- 57
2019-07-22 21:00:00 24.3 11 Nordeste 32 Oeste 0.4 -- -- 52
2019-07-22 20:00:00 26.1 8 Este 40 Este 0 -- -- 40
2019-07-22 19:00:00 28.4 25 Este 55 Sur 0 -- -- 39
2019-07-22 18:00:00 36.2 13 Sudoeste 24 Sudoeste 0 -- -- 25
2019-07-22 17:00:00 35.7 11 Oeste 40 Este 0 -- -- 26
2019-07-22 16:00:00 34.4 4 Noroeste 18 Sudoeste 0 -- -- 27
2019-07-22 15:00:00 34.4 8 Sur 16 Sur 0 -- -- 30
2019-07-22 14:00:00 32.6 8 Sudoeste 18 Este 0 -- -- 35
2019-07-22 13:00:00 30.2 8 Norte 17 Nordeste 0 -- -- 41
2019-07-22 12:00:00 28.1 9 Nordeste 21 Este 0 -- -- 47
2019-07-22 11:00:00 25.5 14 Nordeste 25 Nordeste 0 -- -- 56
2019-07-22 10:00:00 23 19 Nordeste 27 Nordeste 0 -- -- 64
2019-07-22 09:00:00 20.5 20 Nordeste 29 Nordeste 0 -- -- 74
2019-07-22 08:00:00 18.9 16 Nordeste 30 Nordeste 0 -- -- 80
2019-07-22 07:00:00 18.9 17 Nordeste 30 Nordeste 0 -- -- 80
2019-07-22 06:00:00 19.1 21 Nordeste 31 Nordeste 0 -- -- 79
2019-07-22 05:00:00 19.7 20 Nordeste 28 Nordeste 0 -- -- 78
2019-07-22 04:00:00 20.3 17 Nordeste 28 Nordeste 0 -- -- 76
2019-07-22 03:00:00 21.7 20 Nordeste 31 Nordeste 0 -- -- 69
2019-07-22 02:00:00 23.2 15 Nordeste 25 Nordeste 0 -- -- 58
2019-07-22 01:00:00 24.9 14 Norte 18 Norte 0 -- -- 42
2019-07-22 00:00:00 25.1 10 Norte 15 Norte 0 -- -- 42
2019-07-21 23:00:00 26.4 10 Norte 16 Noroeste 0 -- -- 38
2019-07-21 22:00:00 28.5 9 Noroeste 16 Noroeste 0 -- -- 30
2019-07-21 21:00:00 31.5 12 Noroeste 23 Oeste 0 -- -- 28
2019-07-21 20:00:00 33.2 17 Oeste 25 Sudoeste 0 -- -- 24
2019-07-21 19:00:00 34.3 16 Sudoeste 28 Oeste 0 -- -- 22
2019-07-21 18:00:00 34 17 Oeste 29 Sudoeste 0 -- -- 23
2019-07-21 17:00:00 33.1 11 Este 24 Este 0 -- -- 26
2019-07-21 16:00:00 31.9 11 Sudoeste 24 Sudoeste 0 -- -- 30
2019-07-21 15:00:00 30.5 9 Sur 22 Sudeste 0 -- -- 36
2019-07-21 14:00:00 28.8 8 Este 21 Nordeste 0 -- -- 41
2019-07-21 13:00:00 26.9 12 Nordeste 24 Nordeste 0 -- -- 48
2019-07-21 12:00:00 24.8 14 Nordeste 26 Este 0 -- -- 55
2019-07-21 11:00:00 22.3 18 Nordeste 28 Nordeste 0 -- -- 63
2019-07-21 10:00:00 20.1 21 Nordeste 29 Nordeste 0 -- -- 72
2019-07-21 09:00:00 18.3 19 Nordeste 29 Nordeste 0 -- -- 80
2019-07-21 08:00:00 16.3 14 Nordeste 24 Nordeste 0 -- -- 88
2019-07-21 07:00:00 16 17 Nordeste 25 Nordeste 0 -- -- 88
2019-07-21 06:00:00 16.8 19 Nordeste 28 Nordeste 0 -- -- 85
2019-07-21 05:00:00 17.3 18 Nordeste 24 Nordeste 0 -- -- 82
2019-07-21 04:00:00 18.1 15 Nordeste 24 Nordeste 0 -- -- 78
2019-07-21 03:00:00 20 14 Nordeste 24 Nordeste 0 -- -- 61
2019-07-21 02:00:00 20.9 11 Norte 15 Norte 0 -- -- 58
2019-07-21 01:00:00 21.2 6 Norte 13 Oeste 0 -- -- 59
2019-07-21 00:00:00 22.6 12 Noroeste 27 Noroeste 0 -- -- 55
2019-07-20 23:00:00 24.1 19 Noroeste 26 Oeste 0 -- -- 48
2019-07-20 22:00:00 25.6 13 Oeste 22 Oeste 0 -- -- 43
2019-07-20 21:00:00 28.5 17 Noroeste 31 Oeste 0 -- -- 36
2019-07-20 20:00:00 30.4 23 Oeste 33 Oeste 0 -- -- 33
2019-07-20 19:00:00 31.6 25 Oeste 37 Sudoeste 0 -- -- 29
2019-07-20 18:00:00 31.6 21 Oeste 40 Noroeste 0 -- -- 29
2019-07-20 17:00:00 31.2 23 Oeste 38 Oeste 0 -- -- 27
2019-07-20 16:00:00 30.8 14 Sudoeste 30 Oeste 0 -- -- 32
2019-07-20 15:00:00 30.1 18 Oeste 31 Oeste 0 -- -- 30
2019-07-20 14:00:00 29.2 14 Oeste 25 Sudoeste 0 -- -- 36
2019-07-20 13:00:00 27.3 13 Sudoeste 24 Sudoeste 0 -- -- 40
2019-07-20 12:00:00 25.1 9 Sudoeste 19 Sudoeste 0 -- -- 46
2019-07-20 11:00:00 22.7 5 Oeste 14 Oeste 0 -- -- 56
2019-07-20 10:00:00 20.3 9 Oeste 14 Oeste 0 -- -- 69
2019-07-20 09:00:00 18.2 9 Oeste 13 Oeste 0 -- -- 77
2019-07-20 08:00:00 16.2 9 Oeste 19 Oeste 0 -- -- 85
2019-07-20 07:00:00 15.7 18 Oeste 24 Oeste 0 -- -- 86
2019-07-20 06:00:00 16.5 21 Oeste 23 Oeste 0 -- -- 84
2019-07-20 05:00:00 17.7 15 Oeste 18 Sudoeste 0 -- -- 79
2019-07-20 04:00:00 18.4 14 Sudoeste 16 Sudoeste 0 -- -- 74
2019-07-20 03:00:00 19.8 10 Sudoeste 13 Sudoeste 0 -- -- 67
2019-07-20 02:00:00 21.3 9 Oeste 14 Oeste 0 -- -- 58
2019-07-20 01:00:00 22.3 14 Oeste 18 Oeste 0 -- -- 55
2019-07-20 00:00:00 23.7 12 Oeste 24 Oeste 0 -- -- 49
2019-07-19 23:00:00 25.4 18 Oeste 26 Oeste 0 -- -- 43
2019-07-19 22:00:00 27.4 18 Oeste 30 Noroeste 0 -- -- 35
2019-07-19 21:00:00 30.2 23 Oeste 32 Oeste 0 -- -- 32
2019-07-19 20:00:00 32.3 21 Oeste 38 Oeste 0 -- -- 27
2019-07-19 19:00:00 33 25 Sudoeste 40 Sudoeste 0 -- -- 26
2019-07-19 18:00:00 33.2 25 Oeste 37 Oeste 0 -- -- 24
2019-07-19 17:00:00 33.3 22 Oeste 38 Oeste 0 -- -- 25
2019-07-19 16:00:00 33 24 Sudoeste 40 Sudoeste 0 -- -- 25
2019-07-19 15:00:00 32 14 Oeste 29 Sudoeste 0 -- -- 26
2019-07-19 14:00:00 30.7 12 Sur 21 Sur 0 -- -- 30
2019-07-19 13:00:00 28.6 4 Sudeste 15 Este 0 -- -- 33
2019-07-19 12:00:00 25.7 10 Este 21 Nordeste 0 -- -- 42
2019-07-19 11:00:00 23.9 12 Este 23 Este 0 -- -- 48
2019-07-19 10:00:00 21.2 18 Nordeste 26 Nordeste 0 -- -- 54
2019-07-19 09:00:00 18.9 19 Nordeste 26 Nordeste 0 -- -- 60
2019-07-19 08:00:00 16.9 17 Nordeste 26 Nordeste 0 -- -- 67
2019-07-19 07:00:00 16.2 18 Nordeste 26 Nordeste 0 -- -- 70
2019-07-19 06:00:00 16.5 17 Nordeste 27 Nordeste 0 -- -- 70
2019-07-19 05:00:00 17 17 Nordeste 26 Nordeste 0 -- -- 68
2019-07-19 04:00:00 17.9 17 Nordeste 27 Nordeste 0 -- -- 64
2019-07-19 03:00:00 19.2 16 Nordeste 31 Nordeste 0 -- -- 60
2019-07-19 02:00:00 20.8 19 Nordeste 30 Nordeste 0 -- -- 55
2019-07-19 01:00:00 22.9 12 Norte 14 Norte 0 -- -- 49
2019-07-19 00:00:00 23.5 10 Norte 15 Norte 0 -- -- 47